Time;durP1;ratioP1;P1;durP2;ratioP2;P2;SDS_P1;SDS_P2;PMS_P1;PMS_P2;Temp;Humidity;BMP_temperature;BMP_pressure;BME280_temperature;BME280_humidity;BME280_pressure;Samples;Min_cycle;Max_cycle;Signal;HPM_P1;HPM_P2
2021/08/19 00:01:40;;;;;;;1.52;0.73;;;;;;;15.52;100.00;95955.75;4956790;28;20429;-80
2021/08/19 00:04:06;;;;;;;0.87;0.70;;;;;;;15.60;100.00;95960.34;4964283;28;20481;-80
2021/08/19 00:06:33;;;;;;;1.23;0.73;;;;;;;15.62;100.00;95963.69;4965060;28;20430;-80
2021/08/19 00:08:59;;;;;;;1.00;0.70;;;;;;;15.64;100.00;95959.16;4964857;28;20519;-80
2021/08/19 00:11:24;;;;;;;1.10;0.80;;;;;;;15.66;100.00;95965.13;4961225;29;20461;-80
2021/08/19 00:13:50;;;;;;;0.87;0.73;;;;;;;15.66;100.00;95955.50;4957425;28;20421;-80
2021/08/19 00:16:15;;;;;;;1.20;0.85;;;;;;;15.65;100.00;95959.09;4957648;29;20792;-79
2021/08/19 00:18:41;;;;;;;0.68;0.60;;;;;;;15.57;100.00;95953.59;4956400;29;20472;-80
2021/08/19 00:21:08;;;;;;;0.73;0.60;;;;;;;15.53;100.00;95957.41;4943876;28;20435;-80
2021/08/19 00:23:35;;;;;;;1.05;0.70;;;;;;;15.52;100.00;95950.53;4937106;29;20945;-80
2021/08/19 00:26:01;;;;;;;1.10;0.60;;;;;;;15.58;100.00;95957.88;4938529;29;20874;-80
2021/08/19 00:28:26;;;;;;;1.50;0.80;;;;;;;15.61;100.00;95957.63;4941618;29;20456;-80
2021/08/19 00:30:52;;;;;;;1.50;0.80;;;;;;;15.56;100.00;95953.72;4957942;28;20521;-81
2021/08/19 00:33:17;;;;;;;0.70;0.57;;;;;;;15.48;100.00;95954.34;4957281;28;20980;-79
2021/08/19 00:35:43;;;;;;;1.30;0.60;;;;;;;15.36;100.00;95955.31;4956719;28;20488;-81
2021/08/19 00:38:08;;;;;;;1.20;0.50;;;;;;;15.24;100.00;95959.72;4955060;28;20464;-80
2021/08/19 00:40:35;;;;;;;0.90;0.50;;;;;;;15.37;100.00;95956.97;4956122;28;20465;-80
2021/08/19 00:43:04;;;;;;;3.15;0.70;;;;;;;15.45;100.00;95951.97;4957229;28;20426;-81
2021/08/19 00:45:31;;;;;;;1.20;0.70;;;;;;;15.38;100.00;95949.00;4956888;28;20466;-81
2021/08/19 00:47:57;;;;;;;1.48;0.88;;;;;;;15.28;100.00;95955.91;4956701;28;20426;-80
2021/08/19 00:50:24;;;;;;;1.98;0.90;;;;;;;15.29;100.00;95941.09;4957856;28;20433;-80
2021/08/19 00:52:50;;;;;;;2.10;0.63;;;;;;;15.39;100.00;95944.63;4956383;28;20516;-80
2021/08/19 00:55:16;;;;;;;1.00;0.60;;;;;;;15.46;100.00;95943.16;4956956;28;20860;-81
2021/08/19 00:57:44;;;;;;;0.70;0.60;;;;;;;15.51;100.00;95940.22;4954649;28;20476;-80
2021/08/19 01:00:11;;;;;;;0.60;0.60;;;;;;;15.53;100.00;95944.34;4936651;29;20431;-81
2021/08/19 01:02:38;;;;;;;0.98;0.77;;;;;;;15.53;100.00;95939.13;4937923;29;20432;-81
2021/08/19 01:05:04;;;;;;;2.00;0.60;;;;;;;15.56;100.00;95936.28;4936298;29;20431;-80
2021/08/19 01:07:31;;;;;;;0.82;0.70;;;;;;;15.58;100.00;95939.59;4937088;29;20526;-80
2021/08/19 01:09:57;;;;;;;1.30;0.70;;;;;;;15.57;100.00;95930.09;4937326;29;20939;-80
2021/08/19 01:12:23;;;;;;;1.05;0.77;;;;;;;15.59;100.00;95941.25;4937825;29;20434;-80
2021/08/19 01:14:50;;;;;;;1.40;0.88;;;;;;;15.45;100.00;95936.31;4937155;29;20842;-81
2021/08/19 01:17:17;;;;;;;2.05;1.00;;;;;;;15.42;100.00;95931.31;4947095;29;20800;-80
2021/08/19 01:19:45;;;;;;;1.00;0.73;;;;;;;15.40;100.00;95939.28;4964737;29;20433;-79
2021/08/19 01:22:11;;;;;;;1.88;0.80;;;;;;;15.36;100.00;95934.44;4971619;28;20426;-80
2021/08/19 01:24:37;;;;;;;3.03;1.10;;;;;;;15.31;100.00;95940.00;4976280;28;20501;-81
2021/08/19 01:27:03;;;;;;;2.65;0.98;;;;;;;15.26;100.00;95942.16;4972398;28;20433;-79
2021/08/19 01:29:30;;;;;;;1.13;0.80;;;;;;;15.25;100.00;95935.28;4960696;28;20434;-80
2021/08/19 01:31:58;;;;;;;1.80;0.90;;;;;;;15.27;100.00;95935.97;4957146;28;20927;-81
2021/08/19 01:34:23;;;;;;;0.52;0.50;;;;;;;15.31;100.00;95933.94;4957109;29;20437;-79
2021/08/19 01:36:49;;;;;;;1.73;0.80;;;;;;;15.28;100.00;95932.44;4959537;28;20978;-80
2021/08/19 01:39:14;;;;;;;0.70;0.60;;;;;;;15.31;100.00;95928.72;4960016;28;20437;-80
2021/08/19 01:41:40;;;;;;;0.97;0.83;;;;;;;15.28;100.00;95924.59;4958733;28;20429;-80
2021/08/19 01:44:05;;;;;;;1.20;0.80;;;;;;;15.32;100.00;95930.41;4960295;28;20425;-80
2021/08/19 01:46:32;;;;;;;0.87;0.63;;;;;;;15.33;100.00;95932.06;4959047;28;20491;-80
2021/08/19 01:48:57;;;;;;;9.90;0.80;;;;;;;15.32;100.00;95935.63;4957263;28;20795;-79
2021/08/19 01:51:23;;;;;;;1.10;0.90;;;;;;;15.30;100.00;95935.75;4959020;28;20508;-80
2021/08/19 01:53:49;;;;;;;1.00;0.80;;;;;;;15.29;100.00;95935.88;4956504;28;20437;-80
2021/08/19 01:56:15;;;;;;;1.10;0.80;;;;;;;15.28;100.00;95936.78;4958098;28;20501;-80
2021/08/19 01:58:41;;;;;;;1.70;0.80;;;;;;;15.27;100.00;95929.94;4957147;28;20425;-81
2021/08/19 02:01:06;;;;;;;1.50;0.90;;;;;;;15.32;100.00;95925.19;4956827;28;20433;-80
2021/08/19 02:03:33;;;;;;;1.20;0.70;;;;;;;15.24;100.00;95928.41;4957964;28;20496;-80
2021/08/19 02:05:58;;;;;;;1.17;0.80;;;;;;;15.20;100.00;95933.03;4956245;28;20533;-80
2021/08/19 02:08:24;;;;;;;1.53;0.87;;;;;;;15.20;100.00;95924.34;4958087;28;20932;-79
2021/08/19 02:10:49;;;;;;;0.87;0.70;;;;;;;15.18;100.00;95927.09;4957540;28;20430;-79
2021/08/19 02:13:15;;;;;;;1.03;0.93;;;;;;;15.12;100.00;95926.75;4958309;28;20512;-79
2021/08/19 02:15:41;;;;;;;1.15;0.80;;;;;;;15.23;100.00;95922.34;4956709;28;20510;-79
2021/08/19 02:18:07;;;;;;;0.87;0.63;;;;;;;15.22;100.00;95920.69;4956266;28;20885;-80
2021/08/19 02:20:34;;;;;;;1.50;1.00;;;;;;;15.20;100.00;95924.34;4956136;29;20425;-80
2021/08/19 02:23:01;;;;;;;3.20;0.95;;;;;;;15.10;100.00;95926.88;4957592;28;20432;-80
2021/08/19 02:25:27;;;;;;;2.00;0.90;;;;;;;15.09;100.00;95924.38;4956578;28;20429;-80
2021/08/19 02:27:53;;;;;;;3.42;1.10;;;;;;;15.07;100.00;95914.06;4963722;29;20436;-80
2021/08/19 02:30:19;;;;;;;2.80;0.90;;;;;;;15.05;100.00;95920.34;4965706;28;20430;-79
2021/08/19 02:32:45;;;;;;;1.95;0.98;;;;;;;15.01;100.00;95917.97;4962875;29;20920;-80
2021/08/19 02:35:11;;;;;;;1.02;0.80;;;;;;;14.98;100.00;95922.59;4958994;28;20433;-78
2021/08/19 02:37:38;;;;;;;3.22;1.17;;;;;;;15.01;100.00;95917.16;4958423;28;20434;-80
2021/08/19 02:40:05;;;;;;;5.07;1.10;;;;;;;14.94;100.00;95918.56;4957586;29;20484;-79
2021/08/19 02:42:30;;;;;;;1.13;0.85;;;;;;;14.95;100.00;95912.44;4958909;29;20508;-80
2021/08/19 02:44:56;;;;;;;1.55;0.90;;;;;;;15.00;100.00;95905.06;4958795;28;20472;-80
2021/08/19 02:47:21;;;;;;;1.20;0.90;;;;;;;15.01;100.00;95898.88;4958284;28;20430;-80
2021/08/19 02:49:47;;;;;;;1.10;0.90;;;;;;;15.04;100.00;95903.03;4942707;28;20435;-80
2021/08/19 02:52:13;;;;;;;9.20;1.10;;;;;;;15.06;100.00;95898.56;4940565;29;20428;-80
2021/08/19 02:54:40;;;;;;;4.53;1.30;;;;;;;14.94;100.00;95903.78;4939789;29;20430;-80
2021/08/19 02:57:05;;;;;;;2.10;1.00;;;;;;;14.98;100.00;95906.94;4937679;29;20430;-80
2021/08/19 02:59:30;;;;;;;1.10;1.00;;;;;;;15.05;100.00;95899.47;4948993;29;20425;-80
2021/08/19 03:01:56;;;;;;;2.03;1.10;;;;;;;15.05;100.00;95902.09;4959783;28;20430;-79
2021/08/19 03:04:21;;;;;;;2.05;1.00;;;;;;;15.03;100.00;95894.41;4957745;28;20426;-80
2021/08/19 03:06:47;;;;;;;2.35;0.98;;;;;;;15.01;100.00;95897.09;4958927;28;20429;-80
2021/08/19 03:09:12;;;;;;;1.93;1.00;;;;;;;15.08;100.00;95894.03;4955528;28;20468;-79
2021/08/19 03:11:39;;;;;;;4.03;1.10;;;;;;;15.10;100.00;95898.19;4958349;28;20476;-80
2021/08/19 03:14:04;;;;;;;2.40;1.10;;;;;;;15.13;100.00;95899.69;4958231;28;20425;-80
2021/08/19 03:16:30;;;;;;;0.77;0.77;;;;;;;15.14;100.00;95890.94;4957791;28;20422;-79
2021/08/19 03:18:55;;;;;;;1.27;0.95;;;;;;;15.12;100.00;95892.84;4956263;28;20517;-81
2021/08/19 03:21:21;;;;;;;1.00;0.87;;;;;;;15.14;100.00;95891.78;4957904;28;20506;-80
2021/08/19 03:23:47;;;;;;;1.17;0.77;;;;;;;15.11;100.00;95899.84;4955762;28;20770;-80
2021/08/19 03:26:14;;;;;;;1.23;0.97;;;;;;;15.16;100.00;95905.50;4957453;28;20461;-79
2021/08/19 03:28:41;;;;;;;1.27;1.00;;;;;;;15.07;100.00;95902.81;4953877;28;20429;-81
2021/08/19 03:31:06;;;;;;;1.33;1.00;;;;;;;14.99;100.00;95909.47;4958399;28;20430;-80
2021/08/19 03:33:32;;;;;;;0.90;0.80;;;;;;;14.97;100.00;95903.50;4956510;28;20967;-80
2021/08/19 03:35:57;;;;;;;2.10;1.00;;;;;;;15.02;100.00;95900.56;4956611;28;20453;-80
2021/08/19 03:38:23;;;;;;;1.40;0.77;;;;;;;15.07;100.00;95901.03;4954619;29;20449;-80
2021/08/19 03:40:49;;;;;;;1.10;1.00;;;;;;;15.01;100.00;95906.72;4958156;28;20429;-79
2021/08/19 03:43:14;;;;;;;1.50;1.00;;;;;;;14.98;100.00;95897.38;4957804;28;20426;-80
2021/08/19 03:45:41;;;;;;;2.50;1.20;;;;;;;15.03;100.00;95894.41;4956415;28;20426;-80
2021/08/19 03:48:07;;;;;;;1.25;0.90;;;;;;;14.98;100.00;95897.38;4955194;28;21122;-80
2021/08/19 03:50:34;;;;;;;1.97;1.00;;;;;;;15.05;100.00;95895.09;4956173;28;20460;-80
2021/08/19 03:52:59;;;;;;;1.95;0.85;;;;;;;15.09;100.00;95898.28;4953791;28;20433;-79
2021/08/19 03:55:25;;;;;;;3.50;1.10;;;;;;;14.96;100.00;95896.66;4957278;28;20429;-80
2021/08/19 03:57:50;;;;;;;1.00;0.73;;;;;;;14.99;100.00;95895.59;4961535;28;20440;-82
2021/08/19 04:00:16;;;;;;;2.15;0.95;;;;;;;14.92;100.00;95891.81;4961963;28;20422;-79
2021/08/19 04:02:47;;;;;;;1.70;0.85;;;;;;;14.92;100.00;95894.41;4958835;28;20421;-80
2021/08/19 04:05:12;;;;;;;1.40;1.10;;;;;;;14.90;100.00;95894.50;4954370;28;20436;-79
2021/08/19 04:07:38;;;;;;;1.92;0.88;;;;;;;14.96;100.00;95891.44;4954350;28;20429;-79
2021/08/19 04:10:04;;;;;;;1.00;0.85;;;;;;;14.94;100.00;95892.50;4954221;29;20442;-79
2021/08/19 04:12:30;;;;;;;1.98;1.10;;;;;;;14.89;100.00;95892.03;4954548;28;20849;-79
2021/08/19 04:14:56;;;;;;;0.80;0.80;;;;;;;14.85;100.00;95893.22;4955850;28;20445;-79
2021/08/19 04:17:21;;;;;;;4.00;1.10;;;;;;;14.85;100.00;95885.41;4955528;28;20751;-80
2021/08/19 04:19:48;;;;;;;1.30;0.90;;;;;;;14.83;100.00;95895.09;4955010;28;20468;-80
2021/08/19 04:22:13;;;;;;;1.30;0.85;;;;;;;14.72;100.00;95899.41;4955563;28;20432;-79
2021/08/19 04:24:39;;;;;;;1.08;0.90;;;;;;;14.79;100.00;95891.91;4955673;28;20520;-79
2021/08/19 04:27:04;;;;;;;0.97;0.90;;;;;;;14.84;100.00;95894.19;4953957;29;20429;-80
2021/08/19 04:29:33;;;;;;;1.00;0.90;;;;;;;14.91;100.00;95892.75;4954687;28;20787;-79
2021/08/19 04:31:59;;;;;;;1.17;0.82;;;;;;;14.96;100.00;95893.22;4955301;28;20512;-79
2021/08/19 04:34:25;;;;;;;1.90;1.20;;;;;;;15.00;100.00;95894.63;4954251;28;20476;-79
2021/08/19 04:36:52;;;;;;;1.97;0.97;;;;;;;15.02;100.00;95892.75;4954866;28;20426;-81
2021/08/19 04:39:17;;;;;;;2.40;1.00;;;;;;;15.10;100.00;95890.34;4954471;28;20507;-80
2021/08/19 04:41:43;;;;;;;0.90;0.80;;;;;;;15.14;100.00;95886.56;4954761;28;20433;-79
2021/08/19 04:44:08;;;;;;;1.33;1.23;;;;;;;15.13;100.00;95891.88;4953675;28;20440;-79
2021/08/19 04:46:34;;;;;;;1.85;1.05;;;;;;;15.09;100.00;95883.50;4955093;28;20443;-80
2021/08/19 04:49:05;;;;;;;1.40;1.20;;;;;;;15.09;100.00;95883.50;4954094;28;20433;-81
2021/08/19 04:51:30;;;;;;;1.40;0.93;;;;;;;15.07;100.00;95882.78;4954518;28;20981;-82
2021/08/19 04:53:57;;;;;;;1.30;1.17;;;;;;;15.08;100.00;95881.81;4954346;28;20510;-82
2021/08/19 04:56:36;;;;;;;1.42;1.05;;;;;;;15.19;100.00;95878.34;4955133;28;20422;-84
2021/08/19 04:59:57;;;;;;;1.50;0.90;;;;;;;15.11;100.00;95884.19;4951179;28;20426;-80
2021/08/19 05:46:52;;;;;;;1.73;0.97;;;;;;;15.54;98.61;95903.44;4948713;28;20440;-81
2021/08/19 05:49:29;;;;;;;1.52;1.02;;;;;;;15.50;99.50;95908.06;4954807;28;20449;-81
2021/08/19 05:51:56;;;;;;;1.65;0.93;;;;;;;15.47;100.00;95918.75;4953759;28;20517;-81
2021/08/19 05:54:39;;;;;;;1.52;1.10;;;;;;;15.59;98.70;95915.16;4937233;29;20432;-81
2021/08/19 05:57:05;;;;;;;1.20;0.95;;;;;;;15.48;98.93;95915.19;4950152;29;20456;-72
2021/08/19 06:00:38;;;;;;;;;;;;;;;;;;;;;
2021/08/19 06:07:37;;;;;;;1.33;1.00;;;;;;;15.58;98.00;95921.34;4894780;29;20510;-81
2021/08/19 06:10:14;;;;;;;1.10;0.90;;;;;;;15.61;98.95;95923.69;4875317;29;20439;-80
2021/08/19 06:13:05;;;;;;;1.98;1.20;;;;;;;15.60;98.03;95919.41;4899795;28;20443;-80
2021/08/19 06:15:43;;;;;;;1.97;1.20;;;;;;;15.56;98.10;95915.38;4958409;28;20491;-81
2021/08/19 06:18:09;;;;;;;1.05;0.88;;;;;;;15.59;99.15;95912.53;4957989;28;20930;-79
2021/08/19 06:20:35;;;;;;;1.20;1.10;;;;;;;15.62;98.45;95916.69;4956819;28;20430;-79
2021/08/19 06:23:11;;;;;;;1.80;1.05;;;;;;;15.73;99.10;95920.13;4957791;28;20426;-81
2021/08/19 06:25:40;;;;;;;1.53;1.00;;;;;;;15.80;98.13;95920.47;4957124;28;20971;-81
2021/08/19 06:28:10;;;;;;;3.28;1.15;;;;;;;15.81;97.63;95924.72;4955922;28;20429;-81
2021/08/19 06:31:13;;;;;;;2.15;1.10;;;;;;;15.82;98.44;95922.94;4956909;28;20433;-80
2021/08/19 06:34:34;;;;;;;2.95;1.27;;;;;;;15.83;98.13;95925.41;4882821;29;20441;-81
2021/08/19 06:37:04;;;;;;;2.03;1.25;;;;;;;15.88;97.01;95918.06;4883216;29;20439;-81
2021/08/19 06:39:35;;;;;;;1.23;0.80;;;;;;;15.90;98.09;95921.34;4942895;29;20505;-81
2021/08/19 06:42:12;;;;;;;1.60;0.80;;;;;;;16.05;97.23;95924.50;4938215;29;20435;-81
2021/08/19 06:45:24;;;;;;;1.70;0.90;;;;;;;16.19;98.42;95924.19;4946235;29;20422;-80
2021/08/19 06:48:12;;;;;;;3.47;1.10;;;;;;;16.32;96.01;95926.63;4944961;28;20438;-80
2021/08/19 06:50:51;;;;;;;1.30;1.13;;;;;;;16.21;96.31;95932.75;4959644;28;20441;-79
2021/08/19 06:53:18;;;;;;;1.20;0.82;;;;;;;16.28;96.28;95929.59;4957552;28;20444;-80
2021/08/19 06:55:43;;;;;;;1.33;0.90;;;;;;;16.40;96.24;95929.44;4964995;28;20449;-80
2021/08/19 06:58:46;;;;;;;2.03;1.10;;;;;;;16.45;95.51;95929.03;4951180;28;20838;-79
2021/08/19 07:01:18;;;;;;;1.63;1.00;;;;;;;16.36;95.56;95935.03;4958477;28;20442;-79
2021/08/19 07:03:44;;;;;;;1.63;0.90;;;;;;;16.47;95.99;95928.91;4955536;28;20430;-76
2021/08/19 07:06:10;;;;;;;1.97;0.90;;;;;;;16.47;94.41;95927.13;4954653;28;20433;-77
2021/08/19 07:08:43;;;;;;;2.05;1.00;;;;;;;16.39;93.97;95927.78;4955200;28;20829;-79
2021/08/19 07:11:09;;;;;;;1.15;0.90;;;;;;;16.36;94.42;95924.59;4954179;28;20422;-77
2021/08/19 07:13:35;;;;;;;0.93;0.82;;;;;;;16.42;94.10;95921.44;4956433;28;20444;-77
2021/08/19 07:16:02;;;;;;;1.20;0.90;;;;;;;16.41;93.93;95923.22;4955770;28;20425;-77
2021/08/19 07:18:28;;;;;;;0.98;0.90;;;;;;;16.54;93.89;95933.50;4954249;28;20489;-76
2021/08/19 07:20:53;;;;;;;1.80;1.00;;;;;;;16.60;92.95;95921.69;4954450;28;20422;-77
2021/08/19 07:23:19;;;;;;;1.40;1.00;;;;;;;16.62;92.74;95931.06;4953270;28;20826;-76
2021/08/19 07:25:45;;;;;;;1.90;0.93;;;;;;;16.53;93.12;95931.00;4954107;28;20489;-77
2021/08/19 07:28:11;;;;;;;1.27;0.90;;;;;;;16.64;92.83;95936.16;4949011;28;20427;-76
2021/08/19 07:30:37;;;;;;;0.70;0.70;;;;;;;16.71;92.93;95932.06;4934135;29;20463;-76
2021/08/19 07:33:04;;;;;;;5.40;1.02;;;;;;;16.77;93.99;95934.22;4937081;29;20790;-76
2021/08/19 07:35:29;;;;;;;1.27;1.02;;;;;;;16.69;92.93;95934.81;4934813;29;20459;-77
2021/08/19 07:37:56;;;;;;;0.90;0.80;;;;;;;16.81;92.17;95935.59;4933977;29;20431;-77
2021/08/19 07:40:24;;;;;;;1.83;1.10;;;;;;;16.81;91.52;95940.81;4935633;29;20423;-77
2021/08/19 07:42:51;;;;;;;1.50;0.90;;;;;;;17.00;92.23;95931.41;4946497;29;20506;-76
2021/08/19 07:45:17;;;;;;;3.97;1.10;;;;;;;16.98;88.83;95926.28;4952404;28;20430;-77
2021/08/19 07:47:43;;;;;;;1.17;0.90;;;;;;;17.19;89.50;95928.84;4952730;28;20434;-77
2021/08/19 07:50:11;;;;;;;1.30;0.83;;;;;;;17.18;87.22;95930.66;4952854;28;20453;-77
2021/08/19 07:52:36;;;;;;;1.67;0.90;;;;;;;17.25;87.93;95922.28;4953965;28;20801;-76
2021/08/19 07:55:05;;;;;;;3.20;0.98;;;;;;;17.28;86.09;95921.97;4953717;28;21293;-78
2021/08/19 07:57:43;;;;;;;1.55;0.90;;;;;;;17.28;85.77;95930.69;4956308;28;20863;-77
2021/08/19 08:00:10;;;;;;;0.88;0.80;;;;;;;17.39;86.08;95933.19;4955412;28;20930;-77
2021/08/19 08:02:35;;;;;;;0.77;0.77;;;;;;;17.53;86.05;95923.28;4953782;29;20430;-77
2021/08/19 08:05:01;;;;;;;0.75;0.75;;;;;;;17.70;83.50;95934.91;4954745;28;20413;-77
2021/08/19 08:07:29;;;;;;;1.90;1.00;;;;;;;17.77;83.00;95929.00;4952680;29;20437;-76
2021/08/19 08:09:54;;;;;;;1.13;0.80;;;;;;;17.64;82.21;95939.69;4952276;28;20485;-76
2021/08/19 08:12:20;;;;;;;2.03;1.10;;;;;;;17.61;83.27;95942.63;4953593;28;20504;-77
2021/08/19 08:14:45;;;;;;;1.20;0.90;;;;;;;17.66;84.09;95945.66;4955658;28;20449;-77
2021/08/19 08:17:11;;;;;;;2.23;0.90;;;;;;;17.60;83.62;95942.75;4955092;28;20429;-77
2021/08/19 08:19:37;;;;;;;1.02;0.90;;;;;;;17.40;85.31;95944.50;4955457;28;20467;-78
2021/08/19 08:22:03;;;;;;;1.63;0.98;;;;;;;17.16;85.51;95940.41;4955595;28;20916;-77
2021/08/19 08:24:30;;;;;;;2.05;0.90;;;;;;;17.09;85.64;95936.69;4957386;28;20860;-77
2021/08/19 08:26:56;;;;;;;1.00;0.90;;;;;;;17.21;88.08;95947.06;4961550;28;20860;-78
2021/08/19 08:29:22;;;;;;;2.20;0.95;;;;;;;17.04;86.81;95949.31;4960481;29;20448;-78
2021/08/19 08:31:49;;;;;;;1.88;0.98;;;;;;;16.83;84.43;95951.97;4959634;28;20513;-78
2021/08/19 08:34:14;;;;;;;1.58;0.63;;;;;;;16.71;84.79;95953.00;4957417;28;20453;-78
2021/08/19 08:36:40;;;;;;;3.50;1.10;;;;;;;16.73;84.80;95958.94;4958139;28;20429;-78
2021/08/19 08:39:05;;;;;;;1.50;0.70;;;;;;;16.78;85.85;95958.56;4953886;28;20417;-77
2021/08/19 08:41:33;;;;;;;2.93;0.93;;;;;;;16.79;86.12;95963.66;4952162;28;20825;-76
2021/08/19 08:43:59;;;;;;;1.02;0.90;;;;;;;16.87;85.43;95963.88;4952136;28;20950;-76
2021/08/19 08:46:26;;;;;;;1.10;0.87;;;;;;;17.05;87.33;95961.44;4952699;28;20524;-77
2021/08/19 08:48:56;;;;;;;3.08;1.25;;;;;;;16.91;91.52;95959.19;4952048;28;20485;-77
2021/08/19 08:51:24;;;;;;;2.30;0.88;;;;;;;16.82;91.18;95960.78;4956931;28;20432;-76
2021/08/19 08:53:50;;;;;;;0.80;0.75;;;;;;;16.85;89.91;95954.47;4954779;28;20533;-76
2021/08/19 08:56:15;;;;;;;1.70;0.90;;;;;;;17.02;90.69;95964.34;4953078;28;20991;-76
2021/08/19 08:58:42;;;;;;;1.50;0.80;;;;;;;17.15;90.61;95961.50;4944656;28;20806;-76
2021/08/19 09:01:24;;;;;;;2.40;1.00;;;;;;;17.24;87.98;95957.25;4932989;29;20925;-77
2021/08/19 09:03:58;;;;;;;1.85;0.95;;;;;;;17.36;84.96;95956.19;4932885;29;20419;-76
2021/08/19 09:10:30;;;;;;;2.15;1.00;;;;;;;17.69;81.60;95957.66;4838358;29;20436;-78
2021/08/19 09:30:35;;;;;;;1.88;1.00;;;;;;;18.65;75.76;95949.91;4957326;28;20934;-78
2021/08/19 09:37:00;;;;;;;1.90;0.98;;;;;;;19.26;72.48;95942.41;4951857;29;20436;-78
2021/08/19 09:40:15;;;;;;;1.50;1.00;;;;;;;19.33;71.44;95937.41;5563130;23;20462;-77
2021/08/19 12:06:50;;;;;;;1.08;0.70;;;;;;;20.28;64.82;95900.13;4926827;29;20445;-80
2021/08/19 12:35:36;;;;;;;2.40;1.27;;;;;;;19.99;67.17;95897.75;4820804;29;20944;-79
2021/08/19 12:38:33;;;;;;;1.30;1.15;;;;;;;19.82;67.15;95896.75;4795716;29;20444;-78
2021/08/19 12:55:59;;;;;;;3.20;0.95;;;;;;;20.03;65.49;95906.16;4934694;28;20443;-80
2021/08/19 12:58:28;;;;;;;1.10;0.95;;;;;;;20.19;63.67;95902.81;4944548;29;20453;-79
2021/08/19 13:00:54;;;;;;;1.77;1.00;;;;;;;20.15;63.03;95904.09;4947360;29;20477;-81
2021/08/19 13:03:19;;;;;;;1.40;1.00;;;;;;;20.26;62.35;95898.59;4947014;29;20427;-79
2021/08/19 13:05:45;;;;;;;1.00;0.87;;;;;;;20.36;62.08;95901.13;4944232;29;20435;-81
2021/08/19 13:08:10;;;;;;;2.40;1.30;;;;;;;20.24;63.11;95895.28;4946399;29;20507;-81
2021/08/19 13:10:36;;;;;;;1.70;0.90;;;;;;;20.31;62.31;95898.97;4946322;29;20433;-80
2021/08/19 13:13:02;;;;;;;1.43;0.87;;;;;;;20.22;60.67;95895.44;4942871;29;20422;-80
2021/08/19 13:15:29;;;;;;;2.20;0.90;;;;;;;20.23;62.43;95896.28;4938550;29;20491;-78
2021/08/19 13:17:55;;;;;;;1.00;0.80;;;;;;;20.28;62.51;95892.22;4940876;29;20491;-79
2021/08/19 13:20:21;;;;;;;1.02;0.93;;;;;;;20.38;64.50;95894.75;4939385;29;20450;-78
2021/08/19 13:22:48;;;;;;;2.40;1.00;;;;;;;20.37;63.18;95887.84;4945044;29;20441;-80
2021/08/19 13:25:13;;;;;;;1.52;0.90;;;;;;;20.30;63.22;95886.78;4948191;29;20435;-79
2021/08/19 13:27:39;;;;;;;1.13;0.90;;;;;;;20.29;64.74;95888.59;4941138;29;20451;-79
2021/08/19 13:30:07;;;;;;;1.00;0.90;;;;;;;20.30;65.79;95886.78;4924471;29;20429;-79
2021/08/19 13:32:33;;;;;;;2.30;1.13;;;;;;;19.98;67.76;95887.34;4930702;29;20584;-79
2021/08/19 13:34:58;;;;;;;1.90;1.20;;;;;;;19.64;68.14;95884.59;4943334;29;20464;-79
2021/08/19 13:37:24;;;;;;;1.20;0.90;;;;;;;19.48;69.11;95890.47;4942918;29;20783;-79
2021/08/19 13:39:49;;;;;;;1.67;0.80;;;;;;;19.40;70.21;95888.59;4945141;29;20451;-79
2021/08/19 13:42:15;;;;;;;1.30;1.00;;;;;;;19.50;72.07;95893.75;4944512;29;20497;-79
2021/08/19 13:44:41;;;;;;;1.73;1.10;;;;;;;19.51;72.53;95888.38;4944949;29;20675;-79
2021/08/19 13:47:09;;;;;;;1.45;1.00;;;;;;;19.46;72.51;95895.03;4943180;29;20438;-78
2021/08/19 13:49:35;;;;;;;2.60;0.98;;;;;;;19.33;70.60;95890.97;4942694;29;20767;-80
2021/08/19 13:52:01;;;;;;;2.33;1.00;;;;;;;19.41;71.73;95890.22;4942114;29;20430;-80
2021/08/19 13:54:27;;;;;;;3.07;1.07;;;;;;;19.40;70.45;95893.84;4945211;29;20415;-79
2021/08/19 13:56:53;;;;;;;1.80;0.90;;;;;;;19.41;70.05;95889.41;4943217;29;20423;-80
2021/08/19 13:59:18;;;;;;;1.80;1.00;;;;;;;19.42;69.37;95894.50;4942925;29;20454;-80
2021/08/19 14:01:44;;;;;;;3.30;0.80;;;;;;;19.47;69.91;95891.47;4939920;29;20503;-80
2021/08/19 14:04:11;;;;;;;1.75;1.00;;;;;;;19.29;70.73;95894.03;4944365;29;20419;-80
2021/08/19 14:06:37;;;;;;;2.10;0.93;;;;;;;19.25;70.80;95888.25;4933522;29;20963;-79
2021/08/19 14:09:02;;;;;;;1.10;1.00;;;;;;;19.42;70.80;95888.44;4936327;28;20511;-80
2021/08/19 14:11:28;;;;;;;1.80;1.08;;;;;;;19.51;69.43;95877.88;4943171;29;20518;-80
2021/08/19 14:13:53;;;;;;;0.57;0.57;;;;;;;19.56;69.36;95878.25;4941753;29;20432;-79
2021/08/19 14:16:19;;;;;;;1.20;0.80;;;;;;;19.46;69.00;95880.09;4938282;29;20483;-79
2021/08/19 14:18:44;;;;;;;1.47;0.80;;;;;;;19.43;70.93;95884.81;4937576;29;20423;-81
2021/08/19 14:21:11;;;;;;;3.10;1.00;;;;;;;19.46;69.40;95880.09;4937501;29;22188;-82
2021/08/19 14:23:39;;;;;;;1.48;0.93;;;;;;;19.27;69.34;95883.66;4933604;29;20440;-83
2021/08/19 14:26:05;;;;;;;1.70;0.90;;;;;;;19.23;67.78;95884.94;4946606;29;20871;-81
2021/08/19 14:38:50;;;;;;;1.75;0.82;;;;;;;19.27;70.21;95885.47;4925498;29;20430;-80
2021/08/19 14:41:15;;;;;;;3.40;0.90;;;;;;;19.35;70.31;95880.31;4916225;29;20838;-82
2021/08/19 14:43:41;;;;;;;0.90;0.70;;;;;;;19.30;70.79;95877.31;4911632;29;20436;-82
2021/08/19 14:46:06;;;;;;;1.23;0.83;;;;;;;19.30;71.56;95877.31;4913957;29;20445;-81
2021/08/19 14:48:32;;;;;;;0.93;0.80;;;;;;;19.22;70.78;95877.22;4906623;29;20428;-80
2021/08/19 14:50:57;;;;;;;1.13;0.73;;;;;;;19.26;70.68;95878.59;4907918;29;20791;-80
2021/08/19 14:53:23;;;;;;;1.60;1.00;;;;;;;19.31;70.04;95879.78;4912647;29;20528;-83
2021/08/19 14:55:50;;;;;;;1.40;0.87;;;;;;;19.29;67.87;95863.34;4905271;29;20644;-79
2021/08/19 14:58:17;;;;;;;0.90;0.70;;;;;;;19.27;67.35;95867.91;4919002;29;20464;-80
2021/08/19 15:00:43;;;;;;;3.25;1.05;;;;;;;19.27;67.46;95867.09;4925006;29;20436;-80
2021/08/19 15:03:08;;;;;;;1.20;0.70;;;;;;;19.19;69.30;95865.22;4922450;29;20551;-79
2021/08/19 15:05:34;;;;;;;1.80;0.60;;;;;;;19.23;69.06;95863.94;4921833;29;20436;-79
2021/08/19 15:08:01;;;;;;;0.90;0.80;;;;;;;19.33;68.48;95861.25;4919468;29;20456;-79
2021/08/19 15:10:26;;;;;;;1.92;0.80;;;;;;;19.24;67.57;95860.31;4921217;29;20421;-79
2021/08/19 15:12:53;;;;;;;4.03;0.82;;;;;;;19.33;66.09;95853.38;4921646;29;20437;-80
2021/08/19 15:15:19;;;;;;;0.90;0.60;;;;;;;19.29;66.74;95859.91;4921305;29;20436;-79
2021/08/19 15:17:44;;;;;;;2.97;0.73;;;;;;;19.24;66.88;95860.31;4916443;29;20519;-80
2021/08/19 15:20:11;;;;;;;4.50;1.20;;;;;;;19.19;68.08;95859.13;4921248;29;20439;-79
2021/08/19 15:22:37;;;;;;;1.75;0.70;;;;;;;19.25;69.44;95862.00;4926768;29;20437;-80
2021/08/19 15:25:03;;;;;;;0.97;0.60;;;;;;;19.26;68.37;95857.56;4937610;28;20484;-80
2021/08/19 15:27:29;;;;;;;1.70;0.60;;;;;;;19.27;69.60;95859.22;4938036;29;20436;-80
2021/08/19 15:29:56;;;;;;;1.38;0.60;;;;;;;19.39;68.73;95851.94;4939863;28;20444;-80
2021/08/19 15:32:22;;;;;;;2.65;0.63;;;;;;;19.28;67.98;95853.84;4935910;29;20452;-80
2021/08/19 15:34:48;;;;;;;1.10;0.90;;;;;;;19.27;68.55;95848.72;4931195;29;20465;-79
2021/08/19 15:37:15;;;;;;;0.95;0.70;;;;;;;19.34;68.19;95855.03;4931516;29;20429;-79
2021/08/19 15:39:41;;;;;;;3.13;1.13;;;;;;;19.38;69.80;95855.56;4929714;29;20437;-80
2021/08/19 15:42:07;;;;;;;7.97;0.80;;;;;;;19.34;68.21;95849.78;4929267;29;20452;-79
2021/08/19 15:44:33;;;;;;;1.20;0.80;;;;;;;19.31;67.91;95852.69;4927852;29;20436;-81
2021/08/19 15:46:59;;;;;;;1.40;0.67;;;;;;;19.33;68.72;95848.13;4919142;29;20812;-83
2021/08/19 15:49:25;;;;;;;1.60;0.90;;;;;;;19.30;67.63;95856.31;4919842;29;20439;-84
2021/08/19 15:51:50;;;;;;;0.85;0.80;;;;;;;19.41;68.68;95850.84;4920624;29;20437;-83
2021/08/19 15:54:16;;;;;;;1.50;0.90;;;;;;;19.44;67.07;95849.72;4920034;29;20425;-83
2021/08/19 15:56:42;;;;;;;1.20;0.90;;;;;;;19.46;69.17;95851.22;4917296;29;20440;-83
2021/08/19 15:59:07;;;;;;;1.77;1.10;;;;;;;19.37;70.21;95852.13;4920458;29;20443;-83
2021/08/19 16:01:33;;;;;;;2.25;0.95;;;;;;;19.30;71.09;95853.69;4918928;29;20429;-83
2021/08/19 16:04:00;;;;;;;1.52;0.60;;;;;;;19.29;70.60;95862.53;4920371;29;20417;-83
2021/08/19 16:06:26;;;;;;;1.15;0.75;;;;;;;19.21;70.58;95859.81;4918650;29;20448;-78